Time;durP1;ratioP1;P1;durP2;ratioP2;P2;SDS_P1;SDS_P2;PMS_P1;PMS_P2;Temp;Humidity;BMP_temperature;BMP_pressure;BME280_temperature;BME280_humidity;BME280_pressure;Samples;Min_cycle;Max_cycle;Signal;HPM_P1;HPM_P2
2022/09/06 00:02:24;;;;;;;6.90;4.83;;;24.00;28.80;;;;;;5011175;28;20305;-85
2022/09/06 00:04:50;;;;;;;5.97;3.53;;;23.80;31.50;;;;;;5012750;28;20974;-85
2022/09/06 00:07:16;;;;;;;5.33;3.53;;;23.70;37.10;;;;;;5012373;28;20546;-85
2022/09/06 00:09:41;;;;;;;8.10;4.00;;;23.60;42.10;;;;;;5010991;28;20191;-85
2022/09/06 00:12:07;;;;;;;7.60;3.10;;;23.50;47.50;;;;;;5011567;28;20464;-85
2022/09/06 00:14:32;;;;;;;6.43;3.53;;;23.40;52.40;;;;;;5011244;28;20204;-85
2022/09/06 00:16:58;;;;;;;4.37;3.10;;;23.20;57.40;;;;;;5012505;28;20644;-85
2022/09/06 00:19:26;;;;;;;8.00;3.33;;;23.10;64.70;;;;;;5012543;28;20187;-85
2022/09/06 00:21:54;;;;;;;7.60;3.50;;;23.10;72.50;;;;;;5011274;28;20186;-86
2022/09/06 00:24:20;;;;;;;3.80;2.83;;;23.00;79.10;;;;;;5012756;28;20433;-85
2022/09/06 00:26:45;;;;;;;6.00;3.10;;;23.00;87.10;;;;;;5012770;28;20531;-86
2022/09/06 00:29:11;;;;;;;5.00;2.87;;;22.90;92.20;;;;;;5011540;28;20179;-86
2022/09/06 00:31:36;;;;;;;3.80;2.60;;;22.90;94.30;;;;;;5011506;28;20957;-84
2022/09/06 00:34:02;;;;;;;4.17;2.50;;;22.90;96.70;;;;;;5011967;28;20187;-85
2022/09/06 00:36:28;;;;;;;5.23;2.80;;;22.90;99.90;;;;;;5012092;28;20180;-85
2022/09/06 00:38:53;;;;;;;12.70;3.33;;;22.80;99.90;;;;;;5014387;28;20547;-85
2022/09/06 00:41:19;;;;;;;4.60;2.67;;;22.90;99.90;;;;;;5015700;28;20251;-85
2022/09/06 00:43:44;;;;;;;3.57;2.90;;;22.80;99.90;;;;;;5015943;28;20600;-85
2022/09/06 00:46:18;;;;;;;7.17;2.97;;;22.70;99.90;;;;;;5015614;28;20730;-85
2022/09/06 00:48:48;;;;;;;5.80;3.47;;;22.70;99.90;;;;;;5015815;28;20211;-85
2022/09/06 00:51:15;;;;;;;5.10;3.43;;;22.60;99.90;;;;;;5014469;28;20509;-85
2022/09/06 00:53:41;;;;;;;17.70;3.47;;;22.60;99.90;;;;;;5014652;28;20470;-84
2022/09/06 00:56:07;;;;;;;4.80;2.93;;;22.50;99.90;;;;;;5015525;28;20506;-85
2022/09/06 00:58:33;;;;;;;4.17;2.90;;;22.50;99.90;;;;;;5015871;28;20406;-85
2022/09/06 01:01:00;;;;;;;4.03;3.13;;;22.40;99.90;;;;;;5014219;28;20176;-85
2022/09/06 01:03:25;;;;;;;5.57;3.30;;;22.30;99.90;;;;;;5014033;28;20488;-85
2022/09/06 01:06:16;;;;;;;4.03;3.50;;;22.20;99.90;;;;;;5013754;28;20501;-85
2022/09/06 01:08:45;;;;;;;3.90;2.50;;;22.10;99.90;;;;;;5015388;28;20183;-86
2022/09/06 01:11:40;;;;;;;4.40;2.93;;;22.00;99.90;;;;;;5016100;28;20755;-85
2022/09/06 01:14:15;;;;;;;5.20;2.83;;;22.00;1.00;;;;;;5014162;28;20445;-85
2022/09/06 01:16:44;;;;;;;6.33;2.90;;;21.90;1.00;;;;;;5015578;28;20424;-85
2022/09/06 01:19:29;;;;;;;12.20;3.47;;;21.90;1.00;;;;;;5014125;28;20413;-87
2022/09/06 01:22:08;;;;;;;4.27;3.10;;;21.90;1.00;;;;;;5015434;28;20390;-85
2022/09/06 01:25:11;;;;;;;5.03;3.20;;;21.80;1.00;;;;;;5014979;28;20479;-85
2022/09/06 01:27:43;;;;;;;3.80;3.07;;;21.80;95.00;;;;;;5007517;28;20417;-85
2022/09/06 01:30:11;;;;;;;7.50;3.70;;;21.80;99.20;;;;;;5014140;28;20975;-85
2022/09/06 01:32:56;;;;;;;4.17;3.53;;;21.80;99.90;;;;;;5013910;28;20549;-85
2022/09/06 01:35:27;;;;;;;3.03;2.73;;;21.70;99.90;;;;;;5014669;28;20413;-85
2022/09/06 01:37:54;;;;;;;3.00;2.57;;;21.70;99.90;;;;;;5015062;28;20425;-86
2022/09/06 01:40:20;;;;;;;3.90;3.17;;;21.70;99.90;;;;;;5014705;28;20412;-85
2022/09/06 01:42:47;;;;;;;5.83;3.17;;;21.70;99.90;;;;;;5014683;28;20829;-86
2022/09/06 01:45:27;;;;;;;4.37;3.70;;;21.70;99.90;;;;;;5014564;28;20414;-85
2022/09/06 01:48:10;;;;;;;4.07;3.00;;;21.70;99.90;;;;;;5014627;28;20431;-86
2022/09/06 01:51:04;;;;;;;4.60;3.50;;;21.60;99.90;;;;;;5013022;28;20739;-86
2022/09/06 01:53:54;;;;;;;7.17;3.50;;;21.60;99.90;;;;;;5013668;28;20485;-85
2022/09/06 01:56:38;;;;;;;7.43;4.23;;;21.60;99.90;;;;;;5014238;28;20486;-85
2022/09/06 01:59:29;;;;;;;5.30;3.30;;;21.60;99.90;;;;;;5014228;28;20418;-85
2022/09/06 02:02:19;;;;;;;6.87;3.93;;;21.60;99.90;;;;;;5013061;28;20400;-86
2022/09/06 02:04:51;;;;;;;5.30;3.90;;;21.50;1.00;;;;;;5014205;28;20405;-85
2022/09/06 02:07:28;;;;;;;6.00;3.70;;;21.30;1.00;;;;;;5014084;28;20417;-86
2022/09/06 02:10:33;;;;;;;5.40;3.80;;;21.30;46.70;;;;;;5012924;28;20536;-85
2022/09/06 02:13:01;;;;;;;4.00;3.60;;;21.30;99.90;;;;;;5013037;28;20472;-86
2022/09/06 02:15:33;;;;;;;4.70;4.30;;;21.30;99.90;;;;;;5013940;28;20413;-86
2022/09/06 02:18:08;;;;;;;4.63;4.13;;;21.30;1.00;;;;;;5014052;28;20445;-87
2022/09/06 02:20:37;;;;;;;4.23;3.60;;;21.30;1.00;;;;;;5012755;28;20415;-86
2022/09/06 02:23:05;;;;;;;5.20;3.90;;;21.20;1.00;;;;;;5012408;28;20495;-84
2022/09/06 02:25:38;;;;;;;3.40;3.10;;;21.10;24.40;;;;;;5012285;28;20434;-86
2022/09/06 02:28:06;;;;;;;6.20;4.27;;;21.00;99.90;;;;;;5012935;28;20421;-86
2022/09/06 02:30:35;;;;;;;5.73;4.53;;;21.00;99.90;;;;;;5013785;28;20511;-86
2022/09/06 02:33:08;;;;;;;6.80;4.03;;;21.00;99.90;;;;;;5013437;28;20492;-86
2022/09/06 02:35:45;;;;;;;5.90;3.97;;;21.00;99.90;;;;;;5013386;28;20821;-86
2022/09/06 02:38:11;;;;;;;5.93;3.87;;;21.00;99.90;;;;;;5013624;28;20422;-86
2022/09/06 02:40:37;;;;;;;5.10;3.80;;;21.00;99.90;;;;;;5013741;28;20807;-86
2022/09/06 02:43:03;;;;;;;8.43;4.10;;;21.00;1.00;;;;;;5013520;28;20209;-85
2022/09/06 02:45:29;;;;;;;6.57;3.63;;;21.00;99.90;;;;;;5013762;28;20415;-86
2022/09/06 02:47:54;;;;;;;8.97;4.07;;;21.10;99.90;;;;;;5012019;28;20479;-86
2022/09/06 02:50:20;;;;;;;7.20;4.03;;;21.20;99.90;;;;;;5012188;28;20565;-86
2022/09/06 02:52:46;;;;;;;6.23;4.13;;;21.10;99.90;;;;;;5012132;28;20420;-86
2022/09/06 02:55:11;;;;;;;8.00;3.93;;;21.10;99.90;;;;;;5013476;28;20181;-85
2022/09/06 02:57:37;;;;;;;5.13;4.23;;;21.00;99.90;;;;;;5013199;28;20183;-86
2022/09/06 03:00:04;;;;;;;6.03;4.60;;;21.00;99.90;;;;;;5012889;28;20182;-86
2022/09/06 03:02:32;;;;;;;6.07;5.47;;;21.10;99.90;;;;;;5011928;28;20181;-86
2022/09/06 03:04:58;;;;;;;8.87;4.67;;;21.00;1.00;;;;;;5011903;28;20436;-86
2022/09/06 03:07:23;;;;;;;7.47;4.70;;;20.80;1.00;;;;;;5012003;28;20429;-86
2022/09/06 03:09:50;;;;;;;7.67;4.90;;;20.80;1.00;;;;;;5013038;28;20268;-86
2022/09/06 03:12:15;;;;;;;5.67;5.00;;;20.80;99.90;;;;;;5011728;28;20209;-86
2022/09/06 03:14:41;;;;;;;9.27;5.00;;;20.60;99.90;;;;;;5013080;28;20424;-86
2022/09/06 03:17:07;;;;;;;6.60;4.97;;;20.50;1.00;;;;;;5012814;28;20175;-86
2022/09/06 03:19:32;;;;;;;5.40;4.90;;;20.50;1.00;;;;;;5013130;28;20649;-86
2022/09/06 03:21:58;;;;;;;8.07;4.93;;;20.50;1.00;;;;;;5013078;28;20184;-86
2022/09/06 03:24:23;;;;;;;6.53;4.77;;;20.50;1.00;;;;;;5011683;28;20201;-85
2022/09/06 03:26:49;;;;;;;6.30;5.30;;;20.50;1.00;;;;;;5012801;28;20186;-86
2022/09/06 03:29:15;;;;;;;6.40;4.77;;;20.40;96.00;;;;;;5011575;28;20262;-86
2022/09/06 03:31:40;;;;;;;6.13;5.03;;;20.40;99.90;;;;;;5012812;28;20417;-86
2022/09/06 03:34:06;;;;;;;6.23;5.43;;;20.30;99.90;;;;;;5011744;28;20197;-86
2022/09/06 03:36:32;;;;;;;5.57;4.73;;;20.20;1.00;;;;;;5011333;28;20572;-86
2022/09/06 03:38:57;;;;;;;8.00;5.50;;;20.20;99.90;;;;;;5012790;28;20178;-85
2022/09/06 03:41:23;;;;;;;7.67;5.23;;;20.30;99.90;;;;;;5011832;28;20669;-86
2022/09/06 03:43:49;;;;;;;9.27;5.57;;;20.20;1.00;;;;;;5011760;28;20237;-86
2022/09/06 03:46:14;;;;;;;5.87;5.27;;;20.10;99.90;;;;;;5012550;28;20552;-86
2022/09/06 03:48:40;;;;;;;7.43;5.37;;;20.00;99.90;;;;;;5012834;28;20197;-86
2022/09/06 03:51:05;;;;;;;6.63;5.93;;;19.90;1.00;;;;;;5012573;28;20666;-86
2022/09/06 03:53:31;;;;;;;6.00;5.40;;;19.90;1.00;;;;;;5012312;28;20277;-86
2022/09/06 03:55:57;;;;;;;7.80;6.87;;;19.80;1.00;;;;;;5012450;28;20168;-86
2022/09/06 03:58:24;;;;;;;10.27;6.40;;;19.80;1.00;;;;;;5011369;28;20230;-86
2022/09/06 04:00:59;;;;;;;7.07;5.50;;;19.80;1.00;;;;;;5012268;28;20438;-85
2022/09/06 04:03:24;;;;;;;10.30;6.70;;;19.70;1.00;;;;;;5012624;28;20442;-86
2022/09/06 04:05:50;;;;;;;7.07;5.90;;;19.70;1.00;;;;;;5012174;28;20416;-86
2022/09/06 04:08:15;;;;;;;6.30;5.70;;;19.60;1.00;;;;;;5011048;28;20705;-86
2022/09/06 04:10:41;;;;;;;6.63;6.03;;;19.60;1.00;;;;;;5012640;28;20707;-86
2022/09/06 04:13:07;;;;;;;6.53;5.93;;;19.60;1.00;;;;;;5011836;28;20707;-88
2022/09/06 04:15:36;;;;;;;9.50;5.87;;;19.60;1.00;;;;;;5015843;28;20182;-86
2022/09/06 04:18:01;;;;;;;7.63;6.20;;;19.50;1.00;;;;;;5014820;28;20187;-85
2022/09/06 04:20:27;;;;;;;14.40;6.63;;;19.40;99.90;;;;;;5014978;28;20432;-88
2022/09/06 04:22:52;;;;;;;9.40;5.93;;;19.40;99.90;;;;;;5015885;28;20205;-86
2022/09/06 04:25:18;;;;;;;7.40;6.33;;;19.30;99.90;;;;;;5016274;28;20271;-86
2022/09/06 04:27:43;;;;;;;10.63;6.53;;;19.30;99.90;;;;;;5014905;28;20556;-86
2022/09/06 04:30:09;;;;;;;6.90;6.20;;;19.30;99.90;;;;;;5014810;28;20191;-86
2022/09/06 04:32:35;;;;;;;8.50;5.97;;;19.30;99.90;;;;;;5015893;28;20207;-86
2022/09/06 04:35:00;;;;;;;6.60;5.63;;;19.30;99.90;;;;;;5015869;28;20183;-86
2022/09/06 04:37:28;;;;;;;7.30;6.53;;;19.30;99.90;;;;;;5015812;28;20172;-87
2022/09/06 04:39:54;;;;;;;7.93;6.30;;;19.30;99.90;;;;;;5014762;28;20180;-86
2022/09/06 04:42:19;;;;;;;8.43;6.20;;;19.20;1.00;;;;;;5015900;28;20978;-86
2022/09/06 04:44:45;;;;;;;11.30;6.43;;;19.20;1.00;;;;;;5015992;28;20209;-86
2022/09/06 04:47:16;;;;;;;7.40;6.17;;;19.20;1.00;;;;;;5014618;28;20644;-87
2022/09/06 04:49:42;;;;;;;11.00;6.27;;;19.20;1.00;;;;;;5014206;28;20209;-85
2022/09/06 04:52:09;;;;;;;8.60;5.77;;;19.20;1.00;;;;;;5015530;28;20860;-86
2022/09/06 04:54:34;;;;;;;7.80;5.93;;;19.20;99.90;;;;;;5015375;28;20513;-86
2022/09/06 04:57:00;;;;;;;8.60;6.60;;;19.20;99.90;;;;;;5014501;28;20932;-86
2022/09/06 04:59:25;;;;;;;7.07;6.27;;;19.20;99.90;;;;;;5014588;28;20197;-86
2022/09/06 05:01:51;;;;;;;9.27;7.03;;;19.10;1.00;;;;;;5015552;28;20180;-86
2022/09/06 05:04:16;;;;;;;11.43;6.60;;;19.10;1.00;;;;;;5015345;28;20378;-87
2022/09/06 05:06:42;;;;;;;9.77;7.07;;;19.00;1.00;;;;;;5015384;28;20179;-86
2022/09/06 05:09:08;;;;;;;9.17;6.60;;;19.00;99.90;;;;;;5015301;28;20663;-86
2022/09/06 05:11:34;;;;;;;10.00;8.17;;;18.90;99.90;;;;;;5014855;28;20175;-86
2022/09/06 05:14:00;;;;;;;9.07;7.10;;;19.00;99.90;;;;;;5015086;28;20514;-86
2022/09/06 05:16:25;;;;;;;8.40;6.57;;;19.00;99.90;;;;;;5014036;28;20331;-86
2022/09/06 05:18:51;;;;;;;11.90;6.67;;;19.10;36.20;;;;;;5013797;28;20184;-86
2022/09/06 05:21:16;;;;;;;10.33;7.47;;;19.10;1.00;;;;;;5015190;28;20587;-86
2022/09/06 05:23:42;;;;;;;8.90;6.77;;;19.20;2.90;;;;;;5014876;28;20605;-86
2022/09/06 05:26:11;;;;;;;12.03;6.93;;;19.10;47.00;;;;;;5012820;28;20184;-86
2022/09/06 05:28:36;;;;;;;9.03;7.30;;;19.10;1.00;;;;;;5015430;28;20171;-86
2022/09/06 05:31:10;;;;;;;7.43;6.63;;;19.20;1.00;;;;;;5013816;28;20479;-85
2022/09/06 05:33:36;;;;;;;8.60;6.47;;;19.20;1.00;;;;;;5014877;28;20207;-86
2022/09/06 05:36:05;;;;;;;8.00;6.30;;;19.30;99.90;;;;;;5014578;28;20911;-86
2022/09/06 05:38:31;;;;;;;14.67;7.03;;;19.40;99.90;;;;;;5014501;28;20189;-86
2022/09/06 05:40:57;;;;;;;12.50;6.27;;;19.40;99.90;;;;;;5015083;28;20813;-86
2022/09/06 05:43:22;;;;;;;6.53;5.90;;;19.50;1.00;;;;;;5014518;28;20279;-86
2022/09/06 05:45:48;;;;;;;9.80;5.80;;;19.90;1.00;;;;;;5014260;28;20183;-86
2022/09/06 05:48:14;;;;;;;10.40;6.40;;;23.60;1.00;;;;;;5014473;28;20587;-87
2022/09/06 05:50:39;;;;;;;6.83;4.17;;;28.00;1.00;;;;;;5014343;28;20172;-87
2022/09/06 05:53:05;;;;;;;13.20;5.10;;;31.70;99.90;;;;;;5014131;28;20760;-87
2022/09/06 05:55:30;;;;;;;6.07;4.87;;;34.70;99.90;;;;;;5012907;28;20179;-87
2022/09/06 05:57:56;;;;;;;10.40;4.50;;;37.30;99.90;;;;;;5013349;28;20305;-88
2022/09/06 06:00:24;;;;;;;8.13;4.80;;;39.40;99.90;;;;;;5014168;28;20182;-90
2022/09/06 06:02:49;;;;;;;6.63;4.80;;;41.40;99.90;;;;;;5012652;28;20252;-88
2022/09/06 06:05:15;;;;;;;11.07;4.67;;;42.90;99.90;;;;;;5013727;28;20796;-87
2022/09/06 06:07:41;;;;;;;8.00;4.37;;;44.30;99.90;;;;;;5011620;28;20179;-88
2022/09/06 06:10:07;;;;;;;5.03;3.70;;;45.40;98.10;;;;;;5013859;28;20178;-88
2022/09/06 06:12:33;;;;;;;12.37;4.50;;;46.30;90.80;;;;;;5012395;28;20473;-89
2022/09/06 06:14:58;;;;;;;10.80;4.60;;;46.80;73.00;;;;;;5013735;28;20174;-89
2022/09/06 06:17:24;;;;;;;10.80;4.13;;;47.20;58.90;;;;;;5012254;28;20171;-86
2022/09/06 06:19:49;;;;;;;5.23;3.93;;;47.70;50.30;;;;;;5012659;28;20213;-86
2022/09/06 06:22:15;;;;;;;5.10;4.37;;;48.40;44.80;;;;;;5012406;28;20228;-84
2022/09/06 06:24:40;;;;;;;9.87;4.60;;;48.90;37.40;;;;;;5013978;28;20183;-86
2022/09/06 06:27:06;;;;;;;6.23;4.00;;;49.10;30.20;;;;;;5012114;28;20182;-86
2022/09/06 06:29:32;;;;;;;6.03;4.43;;;49.70;27.40;;;;;;5013590;28;20205;-85
2022/09/06 06:31:57;;;;;;;6.83;4.23;;;50.40;23.70;;;;;;5012247;28;20210;-86
2022/09/06 06:34:23;;;;;;;6.90;4.10;;;50.60;19.60;;;;;;5012661;28;20236;-86
2022/09/06 06:36:48;;;;;;;5.20;4.67;;;50.80;16.50;;;;;;5012869;28;20650;-86
2022/09/06 06:39:14;;;;;;;6.63;3.60;;;51.00;13.50;;;;;;5012140;28;20666;-86
2022/09/06 06:41:40;;;;;;;8.60;3.43;;;51.60;12.20;;;;;;5012336;28;20175;-86
2022/09/06 06:44:05;;;;;;;6.37;3.43;;;51.70;9.60;;;;;;5013276;28;20696;-86
2022/09/06 06:46:35;;;;;;;3.13;2.63;;;51.80;7.10;;;;;;5012959;28;20641;-86
2022/09/06 06:49:00;;;;;;;6.93;3.00;;;52.40;6.00;;;;;;5012082;28;20241;-86
2022/09/06 06:51:29;;;;;;;3.25;2.70;;;53.30;5.50;;;;;;5013312;28;20181;-86
2022/09/06 06:53:58;;;;;;;5.60;2.90;;;54.10;4.00;;;;;;5011689;28;20292;-86
2022/09/06 06:56:31;;;;;;;7.32;3.17;;;54.70;2.60;;;;;;5011663;28;20179;-85
2022/09/06 06:58:59;;;;;;;8.63;2.90;;;54.90;1.00;;;;;;5011736;28;20182;-86
2022/09/06 07:01:26;;;;;;;3.08;2.78;;;55.20;1.00;;;;;;5011725;28;20265;-86
2022/09/06 07:03:53;;;;;;;5.80;2.85;;;55.30;1.00;;;;;;5011764;28;20548;-85
2022/09/06 07:06:20;;;;;;;3.17;2.85;;;55.20;1.00;;;;;;5011532;28;20182;-84
2022/09/06 07:08:46;;;;;;;3.33;2.75;;;55.60;1.00;;;;;;5012861;28;20178;-86
2022/09/06 07:11:14;;;;;;;5.03;2.08;;;55.90;1.00;;;;;;5011607;28;20185;-86
2022/09/06 07:13:40;;;;;;;2.50;2.30;;;56.00;1.00;;;;;;5012425;28;20210;-85
2022/09/06 07:16:18;;;;;;;5.65;1.95;;;55.90;1.00;;;;;;5012415;28;20177;-86
2022/09/06 07:18:44;;;;;;;10.40;2.30;;;55.40;1.00;;;;;;5011461;28;20174;-85
2022/09/06 07:21:12;;;;;;;2.80;1.67;;;55.40;1.00;;;;;;5012630;28;20167;-84
2022/09/06 07:23:38;;;;;;;2.63;1.92;;;55.20;1.00;;;;;;5012650;28;20568;-86
2022/09/06 07:26:04;;;;;;;2.80;2.08;;;55.20;1.00;;;;;;5011137;28;20233;-86
2022/09/06 07:28:30;;;;;;;3.83;1.95;;;55.30;1.00;;;;;;5011442;28;20205;-85
2022/09/06 07:30:57;;;;;;;2.80;1.60;;;55.70;1.00;;;;;;5012660;28;20572;-86
2022/09/06 07:33:23;;;;;;;2.22;1.58;;;55.70;1.00;;;;;;5012416;28;20297;-85
2022/09/06 07:36:00;;;;;;;3.88;1.52;;;55.20;1.00;;;;;;5012305;28;20300;-86
2022/09/06 07:38:27;;;;;;;2.85;1.90;;;54.50;1.00;;;;;;5011744;28;20257;-86
2022/09/06 07:40:55;;;;;;;2.95;1.55;;;54.20;1.00;;;;;;5012575;28;20216;-86
2022/09/06 07:43:21;;;;;;;2.47;2.05;;;54.60;1.00;;;;;;5012500;28;20809;-85
2022/09/06 07:45:46;;;;;;;2.53;1.60;;;54.90;1.00;;;;;;5012569;28;20179;-84
2022/09/06 07:48:12;;;;;;;5.07;1.75;;;55.30;1.00;;;;;;5013555;28;20174;-86
2022/09/06 07:50:37;;;;;;;5.32;2.08;;;55.90;1.00;;;;;;5015041;28;20208;-86
2022/09/06 07:53:05;;;;;;;3.20;1.50;;;56.10;1.00;;;;;;5016459;28;20692;-85
2022/09/06 07:55:30;;;;;;;3.28;1.40;;;56.10;1.00;;;;;;5016034;28;20233;-85
2022/09/06 07:57:56;;;;;;;1.60;1.40;;;56.10;1.00;;;;;;5016213;28;20167;-85
2022/09/06 08:00:21;;;;;;;3.50;1.58;;;55.40;1.00;;;;;;5015331;28;20249;-86
2022/09/06 08:02:47;;;;;;;2.60;1.58;;;55.30;1.00;;;;;;5016155;28;20230;-85
2022/09/06 08:05:12;;;;;;;3.53;1.60;;;54.60;1.00;;;;;;5023443;28;20178;-85
2022/09/06 08:07:38;;;;;;;1.52;1.10;;;54.10;1.00;;;;;;5038425;28;20185;-85
2022/09/06 08:10:04;;;;;;;3.00;1.25;;;53.90;1.00;;;;;;5016363;28;20547;-83
2022/09/06 08:12:30;;;;;;;1.98;1.60;;;54.10;1.00;;;;;;5015800;28;20209;-85
2022/09/06 08:14:55;;;;;;;2.97;1.77;;;54.60;1.00;;;;;;5016218;28;20167;-85
2022/09/06 08:17:21;;;;;;;3.40;2.55;;;54.40;1.00;;;;;;5015956;28;20221;-83
2022/09/06 08:19:48;;;;;;;5.88;1.60;;;53.70;1.00;;;;;;5015173;28;20261;-85
2022/09/06 08:22:14;;;;;;;1.80;1.48;;;53.90;1.00;;;;;;5014922;28;20186;-86
2022/09/06 08:24:39;;;;;;;3.07;1.30;;;54.00;1.00;;;;;;5016037;28;20186;-85
2022/09/06 08:27:06;;;;;;;3.28;1.52;;;53.80;1.00;;;;;;5015726;28;20182;-85
2022/09/06 08:29:33;;;;;;;5.07;1.57;;;53.90;1.00;;;;;;5015958;28;20184;-85
2022/09/06 08:31:58;;;;;;;2.03;1.40;;;53.90;1.00;;;;;;5015515;28;20230;-85
2022/09/06 08:34:24;;;;;;;4.10;1.30;;;53.40;1.00;;;;;;5015731;28;20723;-85
2022/09/06 08:36:50;;;;;;;2.57;1.23;;;52.90;1.00;;;;;;5015619;28;20175;-85
2022/09/06 08:39:15;;;;;;;1.90;1.40;;;52.70;1.00;;;;;;5015978;28;20171;-85
2022/09/06 08:42:02;;;;;;;4.00;1.37;;;52.30;1.00;;;;;;5015627;28;20186;-86
2022/09/06 08:44:33;;;;;;;2.60;1.30;;;52.40;1.00;;;;;;5014241;28;20198;-85
2022/09/06 08:47:06;;;;;;;4.37;2.13;;;52.90;1.00;;;;;;5015312;28;20217;-85
2022/09/06 08:49:35;;;;;;;3.10;1.50;;;53.40;1.00;;;;;;5015603;28;20269;-86
2022/09/06 08:52:25;;;;;;;3.37;1.30;;;53.60;1.00;;;;;;5015247;28;20277;-85
2022/09/06 08:55:08;;;;;;;3.90;1.40;;;54.20;1.00;;;;;;5015110;28;20529;-85
2022/09/06 08:58:03;;;;;;;2.77;1.23;;;54.40;1.00;;;;;;5015155;28;20202;-85
2022/09/06 09:00:32;;;;;;;1.80;1.00;;;55.00;1.00;;;;;;5013677;28;20646;-85
2022/09/06 09:03:11;;;;;;;1.75;1.00;;;55.40;1.00;;;;;;5015122;28;20232;-85
2022/09/06 09:05:41;;;;;;;2.95;1.15;;;55.40;1.00;;;;;;5015021;28;20181;-85
2022/09/06 09:08:49;;;;;;;2.37;1.50;;;54.80;1.00;;;;;;5015651;28;20178;-85
2022/09/06 09:11:18;;;;;;;5.90;1.20;;;54.00;1.00;;;;;;5011680;28;20645;-85
2022/09/06 09:13:46;;;;;;;1.70;1.20;;;53.20;1.00;;;;;;5019657;28;20229;-85
2022/09/06 09:16:16;;;;;;;1.97;1.30;;;52.80;1.00;;;;;;5018447;28;20274;-85
2022/09/06 09:18:45;;;;;;;3.77;1.50;;;52.60;1.00;;;;;;5014873;28;20292;-85
2022/09/06 09:21:11;;;;;;;3.70;1.20;;;52.40;1.00;;;;;;5014993;28;20413;-85
2022/09/06 09:23:37;;;;;;;1.50;1.10;;;52.20;1.00;;;;;;5013606;28;20467;-85
2022/09/06 09:26:08;;;;;;;1.37;1.10;;;52.00;1.00;;;;;;5013172;28;20192;-85
2022/09/06 09:28:34;;;;;;;2.90;1.30;;;51.90;1.00;;;;;;5014847;28;20253;-85
2022/09/06 09:31:00;;;;;;;3.93;1.20;;;51.30;1.00;;;;;;5014574;28;20209;-84
2022/09/06 09:33:34;;;;;;;4.37;1.40;;;50.80;1.00;;;;;;5013333;28;20225;-84
2022/09/06 09:36:20;;;;;;;2.40;1.03;;;50.50;1.00;;;;;;5013287;28;20947;-85
2022/09/06 09:38:51;;;;;;;2.30;1.30;;;50.30;1.00;;;;;;5013547;28;20959;-83
2022/09/06 09:41:28;;;;;;;1.40;1.03;;;50.30;1.00;;;;;;5013156;28;20548;-85
2022/09/06 09:44:16;;;;;;;1.40;1.00;;;51.10;1.00;;;;;;5014228;28;20897;-85
2022/09/06 09:46:41;;;;;;;5.93;1.10;;;51.40;1.00;;;;;;5014194;28;20401;-86
2022/09/06 09:49:20;;;;;;;3.07;1.00;;;51.70;1.00;;;;;;5012941;28;20948;-85
2022/09/06 09:52:02;;;;;;;1.60;1.00;;;51.80;1.00;;;;;;5013100;28;20186;-85
2022/09/06 09:54:35;;;;;;;1.63;1.10;;;51.90;1.00;;;;;;5012887;28;20894;-85
2022/09/06 09:57:06;;;;;;;1.83;0.90;;;52.20;1.00;;;;;;5013954;28;20905;-85
2022/09/06 09:59:35;;;;;;;4.23;1.10;;;52.60;1.00;;;;;;5014327;28;20158;-85
2022/09/06 10:02:17;;;;;;;1.87;1.00;;;52.70;1.00;;;;;;5012919;28;20642;-85
2022/09/06 10:04:50;;;;;;;1.47;1.00;;;52.60;1.00;;;;;;5014103;28;20232;-86
2022/09/06 10:07:24;;;;;;;1.97;1.20;;;52.60;1.00;;;;;;5013878;28;20262;-85
2022/09/06 10:09:59;;;;;;;2.70;1.00;;;52.20;1.00;;;;;;5014079;28;20162;-84
2022/09/06 10:12:31;;;;;;;4.50;1.20;;;52.20;1.00;;;;;;5011794;28;20618;-86
2022/09/06 10:14:57;;;;;;;1.87;1.20;;;52.20;1.00;;;;;;5013816;28;20186;-85
2022/09/06 10:17:25;;;;;;;3.53;1.00;;;52.20;1.00;;;;;;5014018;28;20217;-85
2022/09/06 10:19:54;;;;;;;1.93;1.00;;;52.20;1.00;;;;;;5012765;28;20209;-84
2022/09/06 10:22:35;;;;;;;1.60;0.93;;;52.20;1.00;;;;;;5012625;28;20247;-85
2022/09/06 10:25:38;;;;;;;3.07;1.17;;;52.10;1.00;;;;;;5013844;28;20163;-85
2022/09/06 10:28:35;;;;;;;2.07;1.20;;;52.00;1.00;;;;;;5012985;28;20277;-85
2022/09/06 10:31:10;;;;;;;1.80;0.90;;;52.00;1.00;;;;;;5012711;28;20170;-85
2022/09/06 10:33:58;;;;;;;1.77;0.80;;;52.20;1.00;;;;;;5035708;28;20220;-85
2022/09/06 10:36:33;;;;;;;4.37;1.30;;;52.30;1.00;;;;;;5020385;28;20221;-85
2022/09/06 10:39:17;;;;;;;2.97;1.07;;;52.40;1.00;;;;;;5013478;28;20162;-85
2022/09/06 10:42:12;;;;;;;1.80;1.07;;;52.40;1.00;;;;;;5013493;28;20604;-85
2022/09/06 10:44:56;;;;;;;3.30;1.20;;;52.30;1.00;;;;;;5011974;28;20202;-85
2022/09/06 10:47:32;;;;;;;2.33;1.20;;;52.50;1.00;;;;;;5012996;28;20341;-85
2022/09/06 10:50:01;;;;;;;6.80;1.20;;;52.40;1.00;;;;;;5013234;28;20190;-85
2022/09/06 10:52:37;;;;;;;2.50;0.90;;;52.30;1.00;;;;;;5013299;28;20206;-85
2022/09/06 10:55:05;;;;;;;1.20;1.03;;;52.10;1.00;;;;;;5012928;28;20198;-85
2022/09/06 10:57:46;;;;;;;4.23;1.40;;;52.10;1.00;;;;;;5012711;28;20665;-85
2022/09/06 11:00:13;;;;;;;2.73;1.23;;;52.00;1.00;;;;;;5013016;28;20166;-86
2022/09/06 11:02:54;;;;;;;2.40;1.27;;;51.60;1.00;;;;;;5011608;28;20194;-85
2022/09/06 11:05:25;;;;;;;1.43;1.00;;;51.60;1.00;;;;;;5012263;28;20625;-84
2022/09/06 11:08:01;;;;;;;3.13;1.20;;;51.40;1.00;;;;;;5012905;28;20213;-84
2022/09/06 11:10:31;;;;;;;3.73;1.00;;;51.50;1.00;;;;;;5012838;28;20204;-85
2022/09/06 11:13:29;;;;;;;4.27;1.90;;;51.30;1.00;;;;;;5011629;28;20640;-85
2022/09/06 11:15:59;;;;;;;3.13;1.30;;;51.20;1.00;;;;;;4999855;28;20478;-85
2022/09/06 11:18:48;;;;;;;1.40;1.00;;;51.30;1.00;;;;;;5011703;28;20198;-85
2022/09/06 11:21:35;;;;;;;4.40;1.00;;;51.20;1.00;;;;;;5011443;28;20170;-84
2022/09/06 11:24:11;;;;;;;5.17;1.10;;;51.10;1.00;;;;;;5012037;28;20738;-85
2022/09/06 11:26:54;;;;;;;2.20;0.97;;;51.00;1.00;;;;;;5011457;28;20215;-85
2022/09/06 11:29:25;;;;;;;4.03;1.13;;;50.80;1.00;;;;;;5013325;28;20170;-85
2022/09/06 11:31:57;;;;;;;2.30;1.30;;;50.60;1.00;;;;;;5011972;28;20181;-85
2022/09/06 11:34:27;;;;;;;5.03;1.67;;;50.00;1.00;;;;;;5012864;28;20437;-84
2022/09/06 11:37:05;;;;;;;2.33;1.67;;;49.80;1.00;;;;;;5011062;28;20417;-85
2022/09/06 11:39:35;;;;;;;2.70;1.50;;;49.40;1.00;;;;;;5012328;28;20430;-85
2022/09/06 11:42:06;;;;;;;6.30;1.47;;;49.20;1.00;;;;;;5012408;28;20413;-85
2022/09/06 11:44:50;;;;;;;2.13;1.10;;;49.50;1.00;;;;;;5010890;28;20520;-85
2022/09/06 11:47:39;;;;;;;2.80;1.30;;;49.20;1.00;;;;;;5012152;28;20417;-85
2022/09/06 11:50:20;;;;;;;2.43;1.30;;;49.00;1.00;;;;;;5011279;28;21009;-85
2022/09/06 11:52:58;;;;;;;2.80;1.30;;;49.00;1.00;;;;;;5015372;28;20460;-85
2022/09/06 11:55:47;;;;;;;5.73;1.60;;;48.80;1.00;;;;;;5010787;28;20986;-85
2022/09/06 11:58:16;;;;;;;3.57;1.23;;;48.80;1.00;;;;;;5012454;28;20413;-85
2022/09/06 12:01:02;;;;;;;2.80;1.40;;;48.70;1.00;;;;;;5010977;28;20459;-84
2022/09/06 12:03:46;;;;;;;2.27;1.23;;;48.60;1.00;;;;;;5012578;28;20449;-85
2022/09/06 12:06:23;;;;;;;1.80;0.87;;;48.70;1.00;;;;;;5010887;28;20431;-83
2022/09/06 12:08:54;;;;;;;1.60;1.00;;;48.90;1.00;;;;;;5010896;28;20817;-85
2022/09/06 12:11:26;;;;;;;3.40;1.10;;;48.90;1.00;;;;;;5011187;28;20823;-85
2022/09/06 12:14:24;;;;;;;2.27;1.00;;;48.60;1.00;;;;;;5010702;28;20890;-85
2022/09/06 12:17:03;;;;;;;2.00;1.00;;;48.40;1.00;;;;;;5011751;28;20422;-85
2022/09/06 12:19:44;;;;;;;1.70;0.97;;;48.30;1.00;;;;;;5010566;28;20413;-84
2022/09/06 12:22:28;;;;;;;1.87;1.20;;;48.10;1.00;;;;;;5011973;28;20409;-84
2022/09/06 12:24:56;;;;;;;1.73;0.80;;;47.80;1.00;;;;;;5010599;28;20417;-85
2022/09/06 12:27:24;;;;;;;2.30;0.97;;;47.60;1.00;;;;;;5010570;28;20429;-85
2022/09/06 12:29:54;;;;;;;2.77;1.00;;;47.50;1.00;;;;;;5012208;28;20413;-85
2022/09/06 12:32:25;;;;;;;1.97;0.80;;;47.10;1.00;;;;;;5011882;28;20975;-85
2022/09/06 12:34:53;;;;;;;2.63;1.17;;;46.70;1.00;;;;;;5014669;28;20407;-85
2022/09/06 12:37:36;;;;;;;3.13;0.80;;;46.60;1.00;;;;;;5015214;28;20927;-85
2022/09/06 12:40:03;;;;;;;2.43;1.00;;;46.50;1.00;;;;;;5014320;28;20417;-84
2022/09/06 12:42:30;;;;;;;2.47;1.10;;;46.20;1.00;;;;;;5014021;28;20950;-85
2022/09/06 12:44:56;;;;;;;2.07;1.10;;;46.20;1.00;;;;;;5015199;28;20533;-84
2022/09/06 12:47:29;;;;;;;3.13;1.20;;;46.00;1.00;;;;;;5013967;28;20513;-84
2022/09/06 12:50:19;;;;;;;1.70;0.90;;;45.80;1.00;;;;;;5015620;28;20197;-84
2022/09/06 12:52:46;;;;;;;1.80;1.10;;;45.50;1.00;;;;;;5015333;28;20557;-84
2022/09/06 12:55:28;;;;;;;5.83;1.30;;;45.10;1.00;;;;;;5015250;28;20472;-85
2022/09/06 12:57:58;;;;;;;2.47;1.30;;;44.80;1.00;;;;;;5015235;28;20391;-84
2022/09/06 13:00:29;;;;;;;2.00;1.03;;;44.70;1.00;;;;;;5015107;28;20460;-84
2022/09/06 13:03:09;;;;;;;6.60;1.30;;;44.60;1.00;;;;;;5013810;28;20454;-85
2022/09/06 13:05:40;;;;;;;3.43;0.87;;;44.50;1.00;;;;;;5013989;28;20413;-85
2022/09/06 13:08:18;;;;;;;4.73;1.17;;;44.50;1.00;;;;;;5015135;28;20425;-84
2022/09/06 13:10:46;;;;;;;2.33;0.90;;;44.40;1.00;;;;;;5013906;28;20417;-85
2022/09/06 13:13:21;;;;;;;5.37;1.50;;;44.20;1.00;;;;;;5013396;28;20501;-84